You are not logged in, Click here to log in

Schedule Details

Flight Number/航班編號: CI123
Departure/出發時間: 那覇空港/なはくうこう OKA (ROAH) at 10:00
Arrival/到達時間: 臺灣桃園國際機場TPE (RCTP) at 11:30
Route/航道: OKINAWA2 MIYAKOJIMA TRANS MYC R595 SEDKU R595 GREEN
Notes/備註: ROAH 020607Z VRB03KT 7000 -SHRA FEW010 BKN020 FEW025CB 28/26 Q1005 RMK 1CU010 5CU020 1CB025 A2969 CB 5KM E MOV ErnRCTP 021130Z 17007KT 7000 FEW020 BKN150 30/22 Q1006 NOSIGrnRCSS 021130Z 26008KT 4500 HZ FEW022 SCT035 BKN150 30/24 Q1006 NOSIG

Weather Information
Getting current METAR information for ROAH View Weather Details
Getting current METAR information for RCTP View Weather Details

Schedule Frequency
詳細資料

Route Map